Yale, Iowa
Current Conditions -  °F | °C
As of 7:35 AM on Wednesday 22 Oct 2014 (Local Time) from KPRO Reporting Station
Overcast Overcast  
Wind Chill: 40°   Ceiling: 4800
Heat Index: 45°   Visibility: 10mi
Dew Point: 40°   Wind: 8mph
Humidity: 84%   Direction: 140°SE
Pressure: 30.2"   Gusts: NA
Location:  41.78°N, 94.36°W
Report Text: KPRO 221235Z AUTO 14007KT 10SM BKN048 BKN050 OVC070 07/05 A3020 RMK AO2 T00700045
Loading
Personal Weather Stations






























Interactive Weather Map
Tropical Storm Tracking
New forecast layout! Learn more

10-Day Weather Forecast

Advertisements
Track Severe Weather on mobile